sensor_id;sensor_type;location;lat;lon;timestamp;temperature;humidity
71175;DHT22;58876;51.994;4.472;2022-12-13T00:01:54;-1.18;78.24
71175;DHT22;58876;51.994;4.472;2022-12-13T00:04:21;-1.19;78.33
71175;DHT22;58876;51.994;4.472;2022-12-13T00:06:48;-1.16;78.30
71175;DHT22;58876;51.994;4.472;2022-12-13T00:09:16;-1.22;78.28
71175;DHT22;58876;51.994;4.472;2022-12-13T00:11:42;-1.27;78.23
71175;DHT22;58876;51.994;4.472;2022-12-13T00:14:09;-1.31;78.30
71175;DHT22;58876;51.994;4.472;2022-12-13T00:16:35;-1.29;78.40
71175;DHT22;58876;51.994;4.472;2022-12-13T00:19:01;-1.28;78.77
71175;DHT22;58876;51.994;4.472;2022-12-13T00:21:29;-1.28;78.66
71175;DHT22;58876;51.994;4.472;2022-12-13T00:23:56;-1.25;78.48
71175;DHT22;58876;51.994;4.472;2022-12-13T00:26:25;-1.36;78.19
71175;DHT22;58876;51.994;4.472;2022-12-13T00:28:52;-1.46;78.42
71175;DHT22;58876;51.994;4.472;2022-12-13T00:31:20;-1.53;78.59
71175;DHT22;58876;51.994;4.472;2022-12-13T00:33:46;-1.40;78.90
71175;DHT22;58876;51.994;4.472;2022-12-13T00:36:12;-1.35;78.59
71175;DHT22;58876;51.994;4.472;2022-12-13T00:38:38;-1.38;78.46
71175;DHT22;58876;51.994;4.472;2022-12-13T00:41:18;-1.38;78.55
71175;DHT22;58876;51.994;4.472;2022-12-13T00:43:45;-1.39;78.80
71175;DHT22;58876;51.994;4.472;2022-12-13T00:46:14;-1.46;78.80
71175;DHT22;58876;51.994;4.472;2022-12-13T00:48:40;-1.45;79.04
71175;DHT22;58876;51.994;4.472;2022-12-13T00:51:10;-1.36;79.28
71175;DHT22;58876;51.994;4.472;2022-12-13T00:53:37;-1.18;79.55
71175;DHT22;58876;51.994;4.472;2022-12-13T00:56:03;-1.15;79.54
71175;DHT22;58876;51.994;4.472;2022-12-13T00:58:28;-1.11;79.43
71175;DHT22;58876;51.994;4.472;2022-12-13T01:01:05;-1.09;79.29
71175;DHT22;58876;51.994;4.472;2022-12-13T01:03:31;-0.95;79.65
71175;DHT22;58876;51.994;4.472;2022-12-13T01:05:57;-0.88;79.35
71175;DHT22;58876;51.994;4.472;2022-12-13T01:08:25;-0.91;79.18
71175;DHT22;58876;51.994;4.472;2022-12-13T01:10:52;-1.01;78.71
71175;DHT22;58876;51.994;4.472;2022-12-13T01:13:17;-1.09;78.42
71175;DHT22;58876;51.994;4.472;2022-12-13T01:15:44;-1.27;78.25
71175;DHT22;58876;51.994;4.472;2022-12-13T01:18:13;-1.25;78.84
71175;DHT22;58876;51.994;4.472;2022-12-13T01:20:39;-1.19;79.04
71175;DHT22;58876;51.994;4.472;2022-12-13T01:23:05;-1.13;78.94
71175;DHT22;58876;51.994;4.472;2022-12-13T01:25:31;-1.22;78.69
71175;DHT22;58876;51.994;4.472;2022-12-13T01:27:58;-1.32;78.39
71175;DHT22;58876;51.994;4.472;2022-12-13T01:30:25;-1.32;79.17
71175;DHT22;58876;51.994;4.472;2022-12-13T01:32:50;-1.22;79.11
71175;DHT22;58876;51.994;4.472;2022-12-13T01:35:16;-1.18;79.29
71175;DHT22;58876;51.994;4.472;2022-12-13T01:37:41;-1.22;79.20
71175;DHT22;58876;51.994;4.472;2022-12-13T01:40:08;-1.22;79.24
71175;DHT22;58876;51.994;4.472;2022-12-13T01:42:37;-1.19;79.40
71175;DHT22;58876;51.994;4.472;2022-12-13T01:45:32;-1.18;79.39
71175;DHT22;58876;51.994;4.472;2022-12-13T01:48:03;-1.24;79.01
71175;DHT22;58876;51.994;4.472;2022-12-13T01:50:35;-1.32;78.62
71175;DHT22;58876;51.994;4.472;2022-12-13T01:53:06;-1.28;78.82
71175;DHT22;58876;51.994;4.472;2022-12-13T01:55:36;-1.25;78.96
71175;DHT22;58876;51.994;4.472;2022-12-13T01:58:04;-1.22;78.92
71175;DHT22;58876;51.994;4.472;2022-12-13T02:00:32;-1.18;79.33
71175;DHT22;58876;51.994;4.472;2022-12-13T02:03:00;-1.25;78.77
71175;DHT22;58876;51.994;4.472;2022-12-13T02:05:32;-1.32;78.90
71175;DHT22;58876;51.994;4.472;2022-12-13T02:08:01;-1.22;79.64
71175;DHT22;58876;51.994;4.472;2022-12-13T02:10:27;-1.29;79.13
71175;DHT22;58876;51.994;4.472;2022-12-13T02:12:53;-1.36;79.00
71175;DHT22;58876;51.994;4.472;2022-12-13T02:15:21;-1.32;79.20
71175;DHT22;58876;51.994;4.472;2022-12-13T02:23:31;-1.32;79.56
71175;DHT22;58876;51.994;4.472;2022-12-13T02:34:56;-1.28;79.80
71175;DHT22;58876;51.994;4.472;2022-12-13T02:37:29;-1.28;79.76
71175;DHT22;58876;51.994;4.472;2022-12-13T02:43:07;-1.25;80.24
71175;DHT22;58876;51.994;4.472;2022-12-13T02:45:46;-1.28;80.21
71175;DHT22;58876;51.994;4.472;2022-12-13T02:48:16;-1.25;80.04
71175;DHT22;58876;51.994;4.472;2022-12-13T02:50:45;-1.29;79.91
71175;DHT22;58876;51.994;4.472;2022-12-13T02:53:12;-1.34;79.88
71175;DHT22;58876;51.994;4.472;2022-12-13T02:55:39;-1.45;79.35
71175;DHT22;58876;51.994;4.472;2022-12-13T02:58:05;-1.56;79.01
71175;DHT22;58876;51.994;4.472;2022-12-13T03:18:13;-1.74;78.54
71175;DHT22;58876;51.994;4.472;2022-12-13T03:21:02;-1.74;78.95
71175;DHT22;58876;51.994;4.472;2022-12-13T03:23:28;-1.66;79.46
71175;DHT22;58876;51.994;4.472;2022-12-13T03:25:59;-1.58;79.49
71175;DHT22;58876;51.994;4.472;2022-12-13T03:28:26;-1.50;79.46
71175;DHT22;58876;51.994;4.472;2022-12-13T03:30:51;-1.53;79.18
71175;DHT22;58876;51.994;4.472;2022-12-13T03:33:17;-1.52;79.41
71175;DHT22;58876;51.994;4.472;2022-12-13T03:35:43;-1.52;79.32
71175;DHT22;58876;51.994;4.472;2022-12-13T03:38:12;-1.50;79.22
71175;DHT22;58876;51.994;4.472;2022-12-13T03:40:38;-1.56;79.22
71175;DHT22;58876;51.994;4.472;2022-12-13T03:43:03;-1.62;79.37
71175;DHT22;58876;51.994;4.472;2022-12-13T03:45:29;-1.64;79.27
71175;DHT22;58876;51.994;4.472;2022-12-13T03:47:55;-1.67;79.17
71175;DHT22;58876;51.994;4.472;2022-12-13T03:50:20;-1.76;78.93
71175;DHT22;58876;51.994;4.472;2022-12-13T03:52:46;-1.86;78.82
71175;DHT22;58876;51.994;4.472;2022-12-13T03:55:12;-1.86;78.92
71175;DHT22;58876;51.994;4.472;2022-12-13T03:57:38;-1.77;79.10
71175;DHT22;58876;51.994;4.472;2022-12-13T04:00:04;-1.69;79.19
71175;DHT22;58876;51.994;4.472;2022-12-13T04:02:30;-1.70;79.04
71175;DHT22;58876;51.994;4.472;2022-12-13T04:04:56;-1.66;79.25
71175;DHT22;58876;51.994;4.472;2022-12-13T04:07:21;-1.74;79.00
71175;DHT22;58876;51.994;4.472;2022-12-13T04:09:47;-1.83;78.99
71175;DHT22;58876;51.994;4.472;2022-12-13T04:12:12;-1.90;78.82
71175;DHT22;58876;51.994;4.472;2022-12-13T04:14:56;-1.91;78.78
71175;DHT22;58876;51.994;4.472;2022-12-13T04:17:21;-1.87;78.95
71175;DHT22;58876;51.994;4.472;2022-12-13T04:19:47;-1.77;79.40
71175;DHT22;58876;51.994;4.472;2022-12-13T04:22:12;-1.76;79.35
71175;DHT22;58876;51.994;4.472;2022-12-13T04:24:38;-1.71;79.36
71175;DHT22;58876;51.994;4.472;2022-12-13T04:27:03;-1.67;79.23
71175;DHT22;58876;51.994;4.472;2022-12-13T04:29:29;-1.76;78.78
71175;DHT22;58876;51.994;4.472;2022-12-13T04:31:55;-1.80;78.61
71175;DHT22;58876;51.994;4.472;2022-12-13T04:34:21;-1.80;78.47
71175;DHT22;58876;51.994;4.472;2022-12-13T04:36:46;-1.80;78.61
71175;DHT22;58876;51.994;4.472;2022-12-13T04:39:11;-1.80;78.75
71175;DHT22;58876;51.994;4.472;2022-12-13T04:41:38;-1.81;78.70
71175;DHT22;58876;51.994;4.472;2022-12-13T04:44:06;-1.83;79.09
71175;DHT22;58876;51.994;4.472;2022-12-13T04:46:33;-1.80;79.10
71175;DHT22;58876;51.994;4.472;2022-12-13T04:48:59;-1.74;79.33
71175;DHT22;58876;51.994;4.472;2022-12-13T04:51:25;-1.71;79.31
71175;DHT22;58876;51.994;4.472;2022-12-13T04:53:51;-1.67;79.41
71175;DHT22;58876;51.994;4.472;2022-12-13T04:56:16;-1.67;79.31
71175;DHT22;58876;51.994;4.472;2022-12-13T04:58:43;-1.70;79.36
71175;DHT22;58876;51.994;4.472;2022-12-13T05:01:09;-1.71;79.35
71175;DHT22;58876;51.994;4.472;2022-12-13T05:03:36;-1.73;79.59
71175;DHT22;58876;51.994;4.472;2022-12-13T05:06:07;-1.70;79.44
71175;DHT22;58876;51.994;4.472;2022-12-13T05:08:33;-1.80;79.22
71175;DHT22;58876;51.994;4.472;2022-12-13T05:10:58;-1.90;78.87
71175;DHT22;58876;51.994;4.472;2022-12-13T05:13:24;-1.84;79.31
71175;DHT22;58876;51.994;4.472;2022-12-13T05:15:57;-1.83;79.03
71175;DHT22;58876;51.994;4.472;2022-12-13T05:18:23;-1.81;79.18
71175;DHT22;58876;51.994;4.472;2022-12-13T05:20:49;-1.89;78.75
71175;DHT22;58876;51.994;4.472;2022-12-13T05:23:23;-2.01;78.59
71175;DHT22;58876;51.994;4.472;2022-12-13T05:25:49;-2.01;78.72
71175;DHT22;58876;51.994;4.472;2022-12-13T05:28:15;-2.00;78.75
71175;DHT22;58876;51.994;4.472;2022-12-13T05:30:42;-2.00;78.66
71175;DHT22;58876;51.994;4.472;2022-12-13T05:33:08;-2.00;78.57
71175;DHT22;58876;51.994;4.472;2022-12-13T05:35:34;-1.97;78.84
71175;DHT22;58876;51.994;4.472;2022-12-13T05:37:59;-1.89;79.25
71175;DHT22;58876;51.994;4.472;2022-12-13T05:40:28;-1.90;79.15
71175;DHT22;58876;51.994;4.472;2022-12-13T05:42:54;-1.87;79.17
71175;DHT22;58876;51.994;4.472;2022-12-13T05:45:20;-1.89;79.13
71175;DHT22;58876;51.994;4.472;2022-12-13T05:47:46;-1.83;79.27
71175;DHT22;58876;51.994;4.472;2022-12-13T05:50:13;-1.83;78.93
71175;DHT22;58876;51.994;4.472;2022-12-13T05:52:39;-1.86;78.83
71175;DHT22;58876;51.994;4.472;2022-12-13T05:55:06;-1.84;79.28
71175;DHT22;58876;51.994;4.472;2022-12-13T05:57:32;-1.80;79.29
71175;DHT22;58876;51.994;4.472;2022-12-13T05:59:57;-1.86;79.01
71175;DHT22;58876;51.994;4.472;2022-12-13T06:02:23;-1.81;79.50
71175;DHT22;58876;51.994;4.472;2022-12-13T06:04:48;-1.79;79.45
71175;DHT22;58876;51.994;4.472;2022-12-13T06:07:14;-1.81;79.65
71175;DHT22;58876;51.994;4.472;2022-12-13T06:09:40;-1.84;80.02
71175;DHT22;58876;51.994;4.472;2022-12-13T06:12:06;-1.87;79.90
71175;DHT22;58876;51.994;4.472;2022-12-13T06:14:31;-1.84;79.98
71175;DHT22;58876;51.994;4.472;2022-12-13T06:16:57;-1.87;79.65
71175;DHT22;58876;51.994;4.472;2022-12-13T06:19:23;-1.86;79.79
71175;DHT22;58876;51.994;4.472;2022-12-13T06:21:49;-1.84;79.33
71175;DHT22;58876;51.994;4.472;2022-12-13T06:24:16;-1.90;79.14
71175;DHT22;58876;51.994;4.472;2022-12-13T06:26:43;-1.87;79.24
71175;DHT22;58876;51.994;4.472;2022-12-13T06:29:08;-1.89;79.14
71175;DHT22;58876;51.994;4.472;2022-12-13T06:31:35;-1.81;79.15
71175;DHT22;58876;51.994;4.472;2022-12-13T06:34:02;-1.84;79.14
71175;DHT22;58876;51.994;4.472;2022-12-13T06:36:28;-1.83;79.14
71175;DHT22;58876;51.994;4.472;2022-12-13T06:38:54;-1.87;79.16
71175;DHT22;58876;51.994;4.472;2022-12-13T06:41:19;-1.89;79.30
71175;DHT22;58876;51.994;4.472;2022-12-13T06:43:46;-1.84;79.37
71175;DHT22;58876;51.994;4.472;2022-12-13T06:46:13;-1.89;78.84
71175;DHT22;58876;51.994;4.472;2022-12-13T06:48:39;-1.94;78.62
71175;DHT22;58876;51.994;4.472;2022-12-13T06:51:06;-2.01;78.79
71175;DHT22;58876;51.994;4.472;2022-12-13T06:53:34;-2.04;79.14
71175;DHT22;58876;51.994;4.472;2022-12-13T06:56:05;-1.93;79.30
71175;DHT22;58876;51.994;4.472;2022-12-13T06:58:33;-2.01;78.93
71175;DHT22;58876;51.994;4.472;2022-12-13T07:01:10;-2.08;78.76
71175;DHT22;58876;51.994;4.472;2022-12-13T07:03:37;-2.11;78.73
71175;DHT22;58876;51.994;4.472;2022-12-13T07:06:06;-2.10;78.77
71175;DHT22;58876;51.994;4.472;2022-12-13T07:08:31;-2.07;78.81
71175;DHT22;58876;51.994;4.472;2022-12-13T07:10:57;-2.04;78.74
71175;DHT22;58876;51.994;4.472;2022-12-13T07:13:23;-2.10;78.73
71175;DHT22;58876;51.994;4.472;2022-12-13T07:15:49;-2.02;78.85
71175;DHT22;58876;51.994;4.472;2022-12-13T07:18:15;-2.14;78.34
71175;DHT22;58876;51.994;4.472;2022-12-13T07:20:42;-2.31;78.22
71175;DHT22;58876;51.994;4.472;2022-12-13T07:23:08;-2.34;78.67
71175;DHT22;58876;51.994;4.472;2022-12-13T07:25:34;-2.35;78.68
71175;DHT22;58876;51.994;4.472;2022-12-13T07:28:04;-2.31;78.44
71175;DHT22;58876;51.994;4.472;2022-12-13T07:30:38;-2.35;78.69
71175;DHT22;58876;51.994;4.472;2022-12-13T07:33:04;-2.35;78.44
71175;DHT22;58876;51.994;4.472;2022-12-13T07:35:31;-2.25;79.00
71175;DHT22;58876;51.994;4.472;2022-12-13T07:37:57;-2.17;79.02
71175;DHT22;58876;51.994;4.472;2022-12-13T07:40:23;-2.10;79.16
71175;DHT22;58876;51.994;4.472;2022-12-13T07:42:54;-2.07;79.18
71175;DHT22;58876;51.994;4.472;2022-12-13T07:45:21;-2.01;79.40
71175;DHT22;58876;51.994;4.472;2022-12-13T07:47:48;-2.02;78.99
71175;DHT22;58876;51.994;4.472;2022-12-13T07:50:14;-2.04;79.09
71175;DHT22;58876;51.994;4.472;2022-12-13T07:52:39;-2.01;79.14
71175;DHT22;58876;51.994;4.472;2022-12-13T07:55:06;-2.02;78.82
71175;DHT22;58876;51.994;4.472;2022-12-13T07:57:32;-1.95;79.20
71175;DHT22;58876;51.994;4.472;2022-12-13T07:59:58;-2.01;79.07
71175;DHT22;58876;51.994;4.472;2022-12-13T08:02:24;-2.01;78.92
71175;DHT22;58876;51.994;4.472;2022-12-13T08:04:50;-1.97;79.05
71175;DHT22;58876;51.994;4.472;2022-12-13T08:07:16;-1.90;79.21
71175;DHT22;58876;51.994;4.472;2022-12-13T08:09:41;-1.84;79.20
71175;DHT22;58876;51.994;4.472;2022-12-13T08:12:07;-1.83;79.06
71175;DHT22;58876;51.994;4.472;2022-12-13T08:14:32;-1.77;79.16
71175;DHT22;58876;51.994;4.472;2022-12-13T08:16:58;-1.76;79.09
71175;DHT22;58876;51.994;4.472;2022-12-13T08:19:24;-1.79;79.09
71175;DHT22;58876;51.994;4.472;2022-12-13T08:21:49;-1.80;78.94
71175;DHT22;58876;51.994;4.472;2022-12-13T08:24:18;-1.70;78.96
71175;DHT22;58876;51.994;4.472;2022-12-13T08:26:44;-1.66;78.64
71175;DHT22;58876;51.994;4.472;2022-12-13T08:29:13;-1.69;78.45
71175;DHT22;58876;51.994;4.472;2022-12-13T08:31:38;-1.73;78.52
71175;DHT22;58876;51.994;4.472;2022-12-13T08:34:04;-1.70;78.39
71175;DHT22;58876;51.994;4.472;2022-12-13T08:36:29;-1.69;78.35
71175;DHT22;58876;51.994;4.472;2022-12-13T08:38:55;-1.66;78.44
71175;DHT22;58876;51.994;4.472;2022-12-13T08:41:21;-1.55;78.42
71175;DHT22;58876;51.994;4.472;2022-12-13T08:43:47;-1.45;78.33
71175;DHT22;58876;51.994;4.472;2022-12-13T08:46:13;-1.31;78.38
71175;DHT22;58876;51.994;4.472;2022-12-13T08:48:39;-1.12;78.07
71175;DHT22;58876;51.994;4.472;2022-12-13T08:51:07;-1.00;77.87
71175;DHT22;58876;51.994;4.472;2022-12-13T08:53:33;-1.00;77.89
71175;DHT22;58876;51.994;4.472;2022-12-13T08:56:04;-0.92;77.61
71175;DHT22;58876;51.994;4.472;2022-12-13T08:58:30;-0.84;77.65
71175;DHT22;58876;51.994;4.472;2022-12-13T09:00:56;-0.71;77.48
71175;DHT22;58876;51.994;4.472;2022-12-13T09:03:22;-0.64;77.27
71175;DHT22;58876;51.994;4.472;2022-12-13T09:05:47;-0.60;77.36
71175;DHT22;58876;51.994;4.472;2022-12-13T09:08:13;-0.56;77.26
71175;DHT22;58876;51.994;4.472;2022-12-13T09:10:39;-0.52;77.00
71175;DHT22;58876;51.994;4.472;2022-12-13T09:13:05;-0.48;77.09
71175;DHT22;58876;51.994;4.472;2022-12-13T09:15:31;-0.39;76.99
71175;DHT22;58876;51.994;4.472;2022-12-13T09:17:57;-0.30;76.84
71175;DHT22;58876;51.994;4.472;2022-12-13T09:20:23;-0.25;76.94
71175;DHT22;58876;51.994;4.472;2022-12-13T09:22:50;-0.18;76.68
71175;DHT22;58876;51.994;4.472;2022-12-13T09:25:15;-0.12;76.71
71175;DHT22;58876;51.994;4.472;2022-12-13T09:27:41;-0.11;76.87
71175;DHT22;58876;51.994;4.472;2022-12-13T09:30:09;0.01;77.07
71175;DHT22;58876;51.994;4.472;2022-12-13T09:32:38;0.15;76.76
71175;DHT22;58876;51.994;4.472;2022-12-13T09:35:05;0.28;76.49
71175;DHT22;58876;51.994;4.472;2022-12-13T09:37:31;0.26;75.62
71175;DHT22;58876;51.994;4.472;2022-12-13T09:39:56;0.33;76.07
71175;DHT22;58876;51.994;4.472;2022-12-13T09:42:26;0.39;75.84
71175;DHT22;58876;51.994;4.472;2022-12-13T09:44:55;0.47;75.99
71175;DHT22;58876;51.994;4.472;2022-12-13T09:47:29;0.52;76.05
71175;DHT22;58876;51.994;4.472;2022-12-13T09:49:58;0.61;75.85
71175;DHT22;58876;51.994;4.472;2022-12-13T09:52:24;0.73;75.81
71175;DHT22;58876;51.994;4.472;2022-12-13T09:54:55;0.76;75.46
71175;DHT22;58876;51.994;4.472;2022-12-13T09:57:27;0.83;75.03
71175;DHT22;58876;51.994;4.472;2022-12-13T09:59:53;0.87;75.09
71175;DHT22;58876;51.994;4.472;2022-12-13T10:02:28;0.98;74.97
71175;DHT22;58876;51.994;4.472;2022-12-13T10:07:38;0.88;74.79
71175;DHT22;58876;51.994;4.472;2022-12-13T10:10:04;0.91;75.03
71175;DHT22;58876;51.994;4.472;2022-12-13T10:12:32;0.88;74.66
71175;DHT22;58876;51.994;4.472;2022-12-13T10:15:02;0.94;74.97
71175;DHT22;58876;51.994;4.472;2022-12-13T10:17:33;1.09;75.35
71175;DHT22;58876;51.994;4.472;2022-12-13T10:20:01;1.24;74.92
71175;DHT22;58876;51.994;4.472;2022-12-13T10:22:28;1.39;74.86
71175;DHT22;58876;51.994;4.472;2022-12-13T10:24:57;1.52;74.50
71175;DHT22;58876;51.994;4.472;2022-12-13T10:27:41;1.55;73.62
71175;DHT22;58876;51.994;4.472;2022-12-13T10:30:14;1.49;74.43
71175;DHT22;58876;51.994;4.472;2022-12-13T10:32:53;1.57;74.28
71175;DHT22;58876;51.994;4.472;2022-12-13T10:35:30;1.57;73.49
71175;DHT22;58876;51.994;4.472;2022-12-13T10:38:25;1.56;73.24
71175;DHT22;58876;51.994;4.472;2022-12-13T10:40:47;1.46;73.85
71175;DHT22;58876;51.994;4.472;2022-12-13T10:43:20;1.49;74.46
71175;DHT22;58876;51.994;4.472;2022-12-13T10:48:48;1.56;74.61
71175;DHT22;58876;51.994;4.472;2022-12-13T10:51:18;1.70;74.58
71175;DHT22;58876;51.994;4.472;2022-12-13T10:53:51;1.86;73.81
71175;DHT22;58876;51.994;4.472;2022-12-13T10:56:19;1.96;73.95
71175;DHT22;58876;51.994;4.472;2022-12-13T10:58:46;2.10;73.81
71175;DHT22;58876;51.994;4.472;2022-12-13T11:04:05;2.29;73.52
71175;DHT22;58876;51.994;4.472;2022-12-13T11:06:45;2.46;72.89
71175;DHT22;58876;51.994;4.472;2022-12-13T11:11:50;2.59;72.35
71175;DHT22;58876;51.994;4.472;2022-12-13T11:14:20;2.62;71.56
71175;DHT22;58876;51.994;4.472;2022-12-13T11:16:53;2.63;71.92
71175;DHT22;58876;51.994;4.472;2022-12-13T11:19:31;2.69;71.95
71175;DHT22;58876;51.994;4.472;2022-12-13T11:21:59;2.73;72.32
71175;DHT22;58876;51.994;4.472;2022-12-13T11:24:36;2.75;72.59
71175;DHT22;58876;51.994;4.472;2022-12-13T11:33:06;2.76;71.72
71175;DHT22;58876;51.994;4.472;2022-12-13T11:35:51;2.71;71.75
71175;DHT22;58876;51.994;4.472;2022-12-13T11:47:16;2.49;70.83
71175;DHT22;58876;51.994;4.472;2022-12-13T11:49:45;2.52;71.22
71175;DHT22;58876;51.994;4.472;2022-12-13T11:52:14;2.66;72.02
71175;DHT22;58876;51.994;4.472;2022-12-13T11:55:04;2.92;71.85
71175;DHT22;58876;51.994;4.472;2022-12-13T12:03:04;3.48;70.56
71175;DHT22;58876;51.994;4.472;2022-12-13T12:05:35;3.66;71.11
71175;DHT22;58876;51.994;4.472;2022-12-13T12:08:31;3.65;70.78
71175;DHT22;58876;51.994;4.472;2022-12-13T12:11:07;3.75;70.24
71175;DHT22;58876;51.994;4.472;2022-12-13T12:13:43;3.75;69.64
71175;DHT22;58876;51.994;4.472;2022-12-13T12:16:22;3.69;69.39
71175;DHT22;58876;51.994;4.472;2022-12-13T12:18:50;3.62;69.55
71175;DHT22;58876;51.994;4.472;2022-12-13T12:21:35;3.71;70.81
71175;DHT22;58876;51.994;4.472;2022-12-13T12:24:18;3.54;69.02
71175;DHT22;58876;51.994;4.472;2022-12-13T12:36:06;3.31;69.14
71175;DHT22;58876;51.994;4.472;2022-12-13T12:38:54;3.21;68.56
71175;DHT22;58876;51.994;4.472;2022-12-13T12:50:11;2.79;69.88
71175;DHT22;58876;51.994;4.472;2022-12-13T12:55:57;2.66;71.00
71175;DHT22;58876;51.994;4.472;2022-12-13T13:01:44;2.58;70.18
71175;DHT22;58876;51.994;4.472;2022-12-13T13:04:17;2.48;70.53
71175;DHT22;58876;51.994;4.472;2022-12-13T13:09:43;2.42;70.58
71175;DHT22;58876;51.994;4.472;2022-12-13T13:12:10;2.39;69.55
71175;DHT22;58876;51.994;4.472;2022-12-13T13:14:37;2.39;69.92
71175;DHT22;58876;51.994;4.472;2022-12-13T13:20:19;2.39;68.82
71175;DHT22;58876;51.994;4.472;2022-12-13T13:22:45;2.31;69.69
71175;DHT22;58876;51.994;4.472;2022-12-13T13:25:32;2.29;70.86
71175;DHT22;58876;51.994;4.472;2022-12-13T13:28:13;2.25;71.39
71175;DHT22;58876;51.994;4.472;2022-12-13T13:31:05;2.25;71.54
71175;DHT22;58876;51.994;4.472;2022-12-13T13:33:45;2.31;71.98
71175;DHT22;58876;51.994;4.472;2022-12-13T13:36:50;2.25;72.02
71175;DHT22;58876;51.994;4.472;2022-12-13T13:39:40;2.25;72.00
71175;DHT22;58876;51.994;4.472;2022-12-13T13:42:20;2.04;72.07
71175;DHT22;58876;51.994;4.472;2022-12-13T13:50:01;1.98;73.04
71175;DHT22;58876;51.994;4.472;2022-12-13T14:15:58;1.74;73.09
71175;DHT22;58876;51.994;4.472;2022-12-13T14:19:03;1.66;73.74
71175;DHT22;58876;51.994;4.472;2022-12-13T14:21:52;1.57;73.91
71175;DHT22;58876;51.994;4.472;2022-12-13T14:24:47;1.52;74.04
71175;DHT22;58876;51.994;4.472;2022-12-13T14:30:20;1.39;74.20
71175;DHT22;58876;51.994;4.472;2022-12-13T14:32:47;1.36;74.17
71175;DHT22;58876;51.994;4.472;2022-12-13T14:35:25;1.36;74.21
71175;DHT22;58876;51.994;4.472;2022-12-13T14:40:32;1.38;74.53
71175;DHT22;58876;51.994;4.472;2022-12-13T14:42:58;1.40;74.54
71175;DHT22;58876;51.994;4.472;2022-12-13T14:45:29;1.32;74.37
71175;DHT22;58876;51.994;4.472;2022-12-13T14:47:58;1.25;74.58
71175;DHT22;58876;51.994;4.472;2022-12-13T14:50:27;1.14;74.79
71175;DHT22;58876;51.994;4.472;2022-12-13T14:52:54;1.12;74.76
71175;DHT22;58876;51.994;4.472;2022-12-13T14:57:54;1.21;74.92
71175;DHT22;58876;51.994;4.472;2022-12-13T15:00:29;1.19;75.09
71175;DHT22;58876;51.994;4.472;2022-12-13T15:02:58;1.17;74.92
71175;DHT22;58876;51.994;4.472;2022-12-13T15:07:53;1.11;75.26
71175;DHT22;58876;51.994;4.472;2022-12-13T15:12:51;1.11;75.15
71175;DHT22;58876;51.994;4.472;2022-12-13T15:15:30;1.12;75.24
71175;DHT22;58876;51.994;4.472;2022-12-13T15:20:42;0.99;75.30
71175;DHT22;58876;51.994;4.472;2022-12-13T15:25:59;0.91;75.54
71175;DHT22;58876;51.994;4.472;2022-12-13T15:28:32;0.87;75.53
71175;DHT22;58876;51.994;4.472;2022-12-13T15:31:00;0.87;75.46
71175;DHT22;58876;51.994;4.472;2022-12-13T15:33:28;0.84;75.49
71175;DHT22;58876;51.994;4.472;2022-12-13T15:36:06;0.78;75.65
71175;DHT22;58876;51.994;4.472;2022-12-13T15:38:36;0.71;75.53
71175;DHT22;58876;51.994;4.472;2022-12-13T15:41:04;0.63;75.59
71175;DHT22;58876;51.994;4.472;2022-12-13T15:43:44;0.57;76.15
71175;DHT22;58876;51.994;4.472;2022-12-13T15:46:10;0.60;76.24
71175;DHT22;58876;51.994;4.472;2022-12-13T15:48:42;0.68;75.90
71175;DHT22;58876;51.994;4.472;2022-12-13T15:51:13;0.67;75.84
71175;DHT22;58876;51.994;4.472;2022-12-13T15:59:25;0.56;76.05
71175;DHT22;58876;51.994;4.472;2022-12-13T16:01:52;0.56;76.05
71175;DHT22;58876;51.994;4.472;2022-12-13T16:04:29;0.56;76.08
71175;DHT22;58876;51.994;4.472;2022-12-13T16:06:56;0.60;76.10
71175;DHT22;58876;51.994;4.472;2022-12-13T16:09:25;0.61;75.79
71175;DHT22;58876;51.994;4.472;2022-12-13T16:11:57;0.54;75.90
71175;DHT22;58876;51.994;4.472;2022-12-13T16:17:21;0.52;76.16
71175;DHT22;58876;51.994;4.472;2022-12-13T16:19:49;0.50;76.23
71175;DHT22;58876;51.994;4.472;2022-12-13T16:22:15;0.53;76.08
71175;DHT22;58876;51.994;4.472;2022-12-13T16:24:41;0.50;76.20
71175;DHT22;58876;51.994;4.472;2022-12-13T16:27:11;0.52;76.16
71175;DHT22;58876;51.994;4.472;2022-12-13T16:29:36;0.56;76.05
71175;DHT22;58876;51.994;4.472;2022-12-13T16:32:02;0.57;75.89
71175;DHT22;58876;51.994;4.472;2022-12-13T16:34:28;0.54;76.02
71175;DHT22;58876;51.994;4.472;2022-12-13T16:36:53;0.56;76.08
71175;DHT22;58876;51.994;4.472;2022-12-13T16:39:19;0.45;76.44
71175;DHT22;58876;51.994;4.472;2022-12-13T16:41:46;0.40;76.70
71175;DHT22;58876;51.994;4.472;2022-12-13T16:44:22;0.40;76.52
71175;DHT22;58876;51.994;4.472;2022-12-13T16:46:49;0.32;76.89
71175;DHT22;58876;51.994;4.472;2022-12-13T16:49:23;0.39;76.73
71175;DHT22;58876;51.994;4.472;2022-12-13T16:51:49;0.39;76.80
71175;DHT22;58876;51.994;4.472;2022-12-13T16:54:17;0.47;76.63
71175;DHT22;58876;51.994;4.472;2022-12-13T16:56:44;0.46;76.53
71175;DHT22;58876;51.994;4.472;2022-12-13T16:59:17;0.39;76.36
71175;DHT22;58876;51.994;4.472;2022-12-13T17:01:45;0.32;76.81
71175;DHT22;58876;51.994;4.472;2022-12-13T17:04:13;0.39;76.81
71175;DHT22;58876;51.994;4.472;2022-12-13T17:06:39;0.36;76.69
71175;DHT22;58876;51.994;4.472;2022-12-13T17:09:05;0.35;76.89
71175;DHT22;58876;51.994;4.472;2022-12-13T17:11:34;0.30;76.79
71175;DHT22;58876;51.994;4.472;2022-12-13T17:14:01;0.33;77.01
71175;DHT22;58876;51.994;4.472;2022-12-13T17:16:27;0.39;76.87
71175;DHT22;58876;51.994;4.472;2022-12-13T17:18:53;0.39;76.80
71175;DHT22;58876;51.994;4.472;2022-12-13T17:21:23;0.40;76.68
71175;DHT22;58876;51.994;4.472;2022-12-13T17:23:59;0.39;76.73
71175;DHT22;58876;51.994;4.472;2022-12-13T17:26:26;0.36;76.85
71175;DHT22;58876;51.994;4.472;2022-12-13T17:28:52;0.42;76.56
71175;DHT22;58876;51.994;4.472;2022-12-13T17:31:19;0.43;76.50
71175;DHT22;58876;51.994;4.472;2022-12-13T17:33:45;0.46;76.53
71175;DHT22;58876;51.994;4.472;2022-12-13T17:36:13;0.46;76.58
71175;DHT22;58876;51.994;4.472;2022-12-13T17:38:43;0.43;76.42
71175;DHT22;58876;51.994;4.472;2022-12-13T17:41:10;0.39;76.58
71175;DHT22;58876;51.994;4.472;2022-12-13T17:43:36;0.42;76.57
71175;DHT22;58876;51.994;4.472;2022-12-13T17:46:05;0.38;76.55
71175;DHT22;58876;51.994;4.472;2022-12-13T17:48:32;0.36;76.60
71175;DHT22;58876;51.994;4.472;2022-12-13T17:50:58;0.30;76.90
71175;DHT22;58876;51.994;4.472;2022-12-13T17:53:24;0.28;77.14
71175;DHT22;58876;51.994;4.472;2022-12-13T17:55:57;0.28;77.11
71175;DHT22;58876;51.994;4.472;2022-12-13T17:58:24;0.30;77.13
71175;DHT22;58876;51.994;4.472;2022-12-13T18:00:51;0.30;77.05
71175;DHT22;58876;51.994;4.472;2022-12-13T18:03:16;0.33;76.87
71175;DHT22;58876;51.994;4.472;2022-12-13T18:05:42;0.38;76.62
71175;DHT22;58876;51.994;4.472;2022-12-13T18:08:08;0.43;76.18
71175;DHT22;58876;51.994;4.472;2022-12-13T18:10:33;0.43;76.25
71175;DHT22;58876;51.994;4.472;2022-12-13T18:12:58;0.40;76.24
71175;DHT22;58876;51.994;4.472;2022-12-13T18:15:24;0.33;76.45
71175;DHT22;58876;51.994;4.472;2022-12-13T18:17:50;0.32;76.68
71175;DHT22;58876;51.994;4.472;2022-12-13T18:20:16;0.32;76.54
71175;DHT22;58876;51.994;4.472;2022-12-13T18:22:41;0.36;76.41